GW5361 Weather Reports


Display with metric or nautical units.
time (UTC)temp
F
wind
direction
speed
MPH
gust
MPH
rain 1hr
in
rain 24hr
in
rain mn
in
humidity
%
barometer
mb
20260502235010 67 242 4.0 11.0 0.00 0.00 0.00 17 1015.3
20260502234530 67 252 4.0 11.0 0.00 0.00 0.00 18 1015.2
20260502234011 67 311 2.0 11.0 0.00 0.00 0.00 20 1015.3
20260502233027 67 309 3.0 9.0 0.00 0.00 0.00 21 1015.3
20260502232509 67 296 2.0 8.0 0.00 0.00 0.00 21 1015.4
20260502232011 66 226 5.0 8.0 0.00 0.00 0.00 21 1015.5
20260502231517 67 227 2.0 8.0 0.00 0.00 0.00 22 1015.3
20260502231008 67 218 4.0 8.0 0.00 0.00 0.00 23 1015.5
20260502230508 67 225 3.0 10.0 0.00 0.00 0.00 23 1015.5
20260502230021 67 223 4.0 10.0 0.00 0.00 0.00 24 1015.5
20260502225506 66 213 5.0 9.0 0.00 0.00 0.00 22 1015.6
20260502225009 67 226 3.0 9.0 0.00 0.00 0.00 22 1015.6
20260502224525 66 225 4.0 9.0 0.00 0.00 0.00 25 1015.7
20260502224009 67 214 5.0 7.0 0.00 0.00 0.00 23 1015.6
20260502223014 66 234 4.0 9.0 0.00 0.00 0.00 23 1015.8
20260502221003 66 327 2.0 8.0 0.00 0.00 0.00 23 1015.9
20260502220504 66 340 2.0 10.0 0.00 0.00 0.00 24 1015.9
20260502220013 67 248 1.0 10.0 0.00 0.00 0.00 24 1016.0
20260502215503 67 200 2.0 6.0 0.00 0.00 0.00 23 1016.0
20260502215002 68 196 1.0 4.0 0.00 0.00 0.00 24 1016.0
20260502214509 67 216 0.0 6.0 0.00 0.00 0.00 24 1016.1
20260502214003 67 230 3.0 8.0 0.00 0.00 0.00 23 1016.2
20260502213504 66 229 3.0 8.0 0.00 0.00 0.00 24 1016.2
20260502213032 67 237 3.0 7.0 0.00 0.00 0.00 24 1016.2
20260502212505 67 204 3.0 7.0 0.00 0.00 0.00 24 1016.3
20260502212004 67 319 2.0 6.0 0.00 0.00 0.00 26 1016.3
20260502211516 67 209 1.0 8.0 0.00 0.00 0.00 25 1016.3
20260502210505 66 339 3.0 8.0 0.00 0.00 0.00 25 1016.6
20260502210012 67 117 2.0 8.0 0.00 0.00 0.00 27 1016.6
20260502205504 67 79 2.0 8.0 0.00 0.00 0.00 27 1016.6
20260502205008 66 234 1.0 5.0 0.00 0.00 0.00 26 1016.7
20260502204512 66 69 2.0 8.0 0.00 0.00 0.00 24 1016.8
20260502204006 65 224 5.0 8.0 0.00 0.00 0.00 25 1016.8
20260502203503 65 155 2.0 5.0 0.00 0.00 0.00 25 1016.8
20260502203016 66 9 1.0 5.0 0.00 0.00 0.00 24 1016.8
20260502202507 65 5 1.0 5.0 0.00 0.00 0.00 30 1016.9
20260502202002 66 223 2.0 8.0 0.00 0.00 0.00 25 1017.0
20260502201522 66 57 1.0 8.0 0.00 0.00 0.00 24 1017.1
20260502201008 66 335 3.0 8.0 0.00 0.00 0.00 26 1017.2
20260502200507 66 335 2.0 8.0 0.00 0.00 0.00 24 1017.2
20260502200012 65 331 4.0 8.0 0.00 0.00 0.00 27 1017.1
20260502195006 65 261 2.0 5.0 0.00 0.00 0.00 26 1017.3
20260502194004 65 335 0.0 6.0 0.00 0.00 0.00 27 1017.3
20260502193505 65 113 3.0 9.0 0.00 0.00 0.00 26 1017.4
20260502192505 63 227 2.0 8.0 0.00 0.00 0.00 27 1017.5
20260502192008 63 225 5.0 8.0 0.00 0.00 0.00 26 1017.5
20260502191514 64 220 2.0 5.0 0.00 0.00 0.00 26 1017.5
20260502191004 65 274 1.0 5.0 0.00 0.00 0.00 27 1017.6
20260502190009 64 207 2.0 5.0 0.00 0.00 0.00 25 1017.7
20260502185503 65 25 2.0 5.0 0.00 0.00 0.00 25 1017.8
20260502184007 63 20 3.0 6.0 0.00 0.00 0.00 29 1017.9
20260502183507 63 227 1.0 5.0 0.00 0.00 0.00 29 1018.0
20260502183024 62 169 0.0 5.0 0.00 0.00 0.00 29 1018.1
20260502182507 62 178 1.0 5.0 0.00 0.00 0.00 29 1018.1
20260502182004 62 167 1.0 3.0 0.00 0.00 0.00 28 1018.2
20260502181514 62 279 1.0 3.0 0.00 0.00 0.00 29 1018.3
20260502181006 61 252 0.0 3.0 0.00 0.00 0.00 32 1018.3
20260502180507 61 203 1.0 4.0 0.00 0.00 0.00 32 1018.4
20260502170509 57 155 1.0 5.0 0.00 0.00 0.00 39 1018.7
20260502164007 56 171 1.0 3.0 0.00 0.00 0.00 41 1018.8
20260502163020 55 180 1.0 6.0 0.00 0.00 0.00 40 1018.8
20260502162007 55 254 1.0 4.0 0.00 0.00 0.00 43 1018.9
20260502161517 55 69 0.0 4.0 0.00 0.00 0.00 40 1018.9
20260502160510 54 216 1.0 4.0 0.00 0.00 0.00 47 1019.0
20260502152014 49 232 1.0 3.0 0.00 0.00 0.00 54 1019.1
20260502151520 48 295 1.0 3.0 0.00 0.00 0.00 54 1019.2
20260502151006 48 310 0.0 3.0 0.00 0.00 0.00 59 1019.2
20260502114519 35 5 0.0 0.0 0.00 0.00 0.00 79 1018.9
20260502114008 35 5 0.0 0.0 0.00 0.00 0.00 78 1018.9
20260502113508 35 5 0.0 0.0 0.00 0.00 0.00 78 1018.8
20260502113027 35 5 0.0 0.0 0.00 0.00 0.00 78 1018.8
20260502112507 35 5 0.0 0.0 0.00 0.00 0.00 79 1018.8
20260502112010 35 5 0.0 0.0 0.00 0.00 0.00 78 1018.7
20260502110504 35 5 0.0 0.0 0.00 0.00 0.00 78 1018.6
20260502105505 35 5 0.0 1.0 0.00 0.00 0.00 77 1018.6
20260502104525 36 5 0.0 1.0 0.00 0.00 0.00 76 1018.6
20260502103507 36 5 0.0 1.0 0.00 0.00 0.00 76 1018.5
20260502103022 36 5 0.0 1.0 0.00 0.00 0.00 77 1018.5
20260502102009 36 5 0.0 1.0 0.00 0.00 0.00 76 1018.5
20260502101522 36 5 0.0 0.0 0.00 0.00 0.00 76 1018.4
20260502101008 36 5 0.0 0.0 0.00 0.00 0.00 76 1018.4
20260502100510 36 5 0.0 0.0 0.00 0.00 0.00 75 1018.4
20260502091522 37 5 0.0 2.0 0.00 0.00 0.00 74 1018.3
20260502091008 37 5 0.0 2.0 0.00 0.00 0.00 74 1018.2
20260502090509 37 5 0.0 1.0 0.00 0.00 0.00 74 1018.1
20260502071516 40 5 0.0 0.0 0.00 0.00 0.00 67 1018.2
20260502071011 40 5 0.0 1.0 0.00 0.00 0.00 68 1018.1
20260502070510 41 5 0.0 1.0 0.00 0.00 0.00 66 1018.1
20260502070037 41 5 0.0 1.0 0.00 0.00 0.00 66 1018.1
20260502065510 41 5 0.0 1.0 0.00 0.00 0.00 67 1018.1
20260502065017 41 5 0.0 0.0 0.00 0.00 0.00 66 1018.1
20260502064524 41 5 0.0 1.0 0.00 0.00 0.00 65 1018.0
20260502064008 41 5 0.0 1.0 0.00 0.00 0.00 65 1018.0
20260502063513 42 5 0.0 0.0 0.00 0.00 0.00 65 1018.0
20260502063029 42 5 0.0 1.0 0.00 0.00 0.00 65 1018.0
20260502062511 42 5 0.0 1.0 0.00 0.00 0.00 65 1017.9
20260502062013 42 5 0.0 1.0 0.00 0.00 0.00 64 1017.8
20260502061526 43 5 0.0 1.0 0.00 0.00 0.00 66 1017.8
20260502061011 43 5 0.0 1.0 0.00 0.00 0.00 64 1017.8
20260502060508 43 5 0.0 1.0 0.00 0.00 0.00 63 1017.8
20260502060032 44 5 0.0 1.0 0.00 0.00 0.00 60 1017.8
20260502055511 44 5 0.0 1.0 0.00 0.00 0.00 59 1017.8
20260502055011 44 5 0.0 0.0 0.00 0.00 0.00 58 1017.8
20260502054537 45 5 0.0 1.0 0.00 0.00 0.00 57 1017.7
20260502054010 44 5 0.0 1.0 0.00 0.00 0.00 57 1017.7
20260502053507 45 5 0.0 1.0 0.00 0.00 0.00 58 1017.7
20260502053029 45 5 0.0 2.0 0.00 0.00 0.00 57 1017.6
20260502052514 45 5 0.0 2.0 0.00 0.00 0.00 58 1017.5
20260502052011 46 5 0.0 3.0 0.00 0.00 0.00 55 1017.5
20260502051524 46 9 1.0 3.0 0.00 0.00 0.00 54 1017.5
20260502051013 46 346 1.0 2.0 0.00 0.00 0.00 55 1017.5
20260502050509 46 340 0.0 2.0 0.00 0.00 0.00 57 1017.5
20260502050028 46 340 1.0 3.0 0.00 0.00 0.00 55 1017.5
20260502045509 46 344 1.0 3.0 0.00 0.00 0.00 56 1017.5
20260502045015 46 331 1.0 2.0 0.00 0.00 0.00 57 1017.6
20260502044520 46 331 0.0 3.0 0.00 0.00 0.00 55 1017.5
20260502044007 46 335 1.0 3.0 0.00 0.00 0.00 56 1017.5
20260502043513 47 346 0.0 2.0 0.00 0.00 0.00 55 1017.5
20260502043004 47 345 0.0 2.0 0.00 0.00 0.00 55 1017.5
20260502042504 47 355 0.0 2.0 0.00 0.00 0.00 53 1017.5
20260502041520 48 346 0.0 3.0 0.00 0.00 0.00 52 1017.5
20260502041004 48 346 0.0 4.0 0.00 0.00 0.00 51 1017.5
20260502040505 48 349 2.0 4.0 0.00 0.00 0.00 50 1017.4
20260502040025 49 5 0.0 4.0 0.00 0.00 0.00 50 1017.4
20260502035506 49 346 2.0 4.0 0.00 0.00 0.00 49 1017.4
20260502035007 49 339 0.0 4.0 0.00 0.00 0.00 49 1017.4
20260502034518 50 351 1.0 4.0 0.00 0.00 0.00 50 1017.4
20260502034009 49 360 1.0 3.0 0.00 0.00 0.00 46 1017.4
20260502033510 50 348 0.0 3.0 0.00 0.00 0.00 48 1017.3
20260502033029 50 352 1.0 3.0 0.00 0.00 0.00 46 1017.2
20260502032508 50 346 0.0 3.0 0.00 0.00 0.00 45 1017.2
20260502032012 51 342 0.0 2.0 0.00 0.00 0.00 45 1017.2
20260502031506 52 342 0.0 0.0 0.00 0.00 0.00 44 1017.1
20260502030505 53 342 0.0 2.0 0.00 0.00 0.00 42 1017.0
20260502030010 53 342 0.0 4.0 0.00 0.00 0.00 41 1016.9
20260502025505 54 346 1.0 4.0 0.00 0.00 0.00 39 1016.8
20260502025007 54 342 0.0 2.0 0.00 0.00 0.00 39 1016.7
20260502024515 55 342 0.0 1.0 0.00 0.00 0.00 39 1016.7
20260502024007 56 342 0.0 0.0 0.00 0.00 0.00 38 1016.7
20260502023511 57 342 0.0 2.0 0.00 0.00 0.00 37 1016.7
20260502023029 58 342 0.0 2.0 0.00 0.00 0.00 34 1016.7
20260502022507 59 342 0.0 3.0 0.00 0.00 0.00 32 1016.7
20260502022009 60 340 0.0 3.0 0.00 0.00 0.00 30 1016.7
20260502021522 61 345 0.0 2.0 0.00 0.00 0.00 28 1016.6
20260502021008 62 346 1.0 2.0 0.00 0.00 0.00 26 1016.6
20260502020507 63 331 0.0 3.0 0.00 0.00 0.00 25 1016.7
20260502020010 63 350 0.0 4.0 0.00 0.00 0.00 25 1016.6
20260502015505 64 344 0.0 4.0 0.00 0.00 0.00 25 1016.6
20260502015006 65 325 0.0 3.0 0.00 0.00 0.00 24 1016.6
20260502014511 65 17 0.0 4.0 0.00 0.00 0.00 23 1016.6
20260502014004 65 336 0.0 4.0 0.00 0.00 0.00 26 1016.6
20260502013506 66 295 0.0 6.0 0.00 0.00 0.00 23 1016.6
20260502013017 66 306 1.0 6.0 0.00 0.00 0.00 23 1016.6
20260502012508 66 250 1.0 5.0 0.00 0.00 0.00 22 1016.6
20260502012005 66 340 1.0 5.0 0.00 0.00 0.00 24 1016.6
20260502011520 66 237 2.0 9.0 0.00 0.00 0.00 22 1016.6
20260502011008 67 22 1.0 9.0 0.00 0.00 0.00 22 1016.6
20260502010508 67 319 2.0 9.0 0.00 0.00 0.00 21 1016.6
20260502010024 67 326 1.0 3.0 0.00 0.00 0.00 22 1016.6
20260502005009 67 244 1.0 7.0 0.00 0.00 0.00 21 1016.7
20260502004527 67 360 3.0 9.0 0.00 0.00 0.00 21 1016.7
20260502004005 67 360 0.0 9.0 0.00 0.00 0.00 21 1016.7
20260502003503 67 208 2.0 5.0 0.00 0.00 0.00 24 1016.8
20260502003015 67 234 1.0 6.0 0.00 0.00 0.00 21 1016.7
20260502002509 67 280 0.0 9.0 0.00 0.00 0.00 23 1016.7
20260502002011 68 219 3.0 9.0 0.00 0.00 0.00 20 1016.7
20260502001520 67 217 2.0 7.0 0.00 0.00 0.00 21 1016.7
20260502001007 67 219 3.0 7.0 0.00 0.00 0.00 20 1016.7
20260502000510 68 226 2.0 3.0 0.00 0.00 0.00 23 1016.8
20260502000032 68 224 1.0 5.0 0.00 0.00 0.00 18 1016.7
20260501235511 68 11 1.0 6.0 0.00 0.00 0.00 19 1016.7